Mashantucket, Connecticut
Current Conditions -  °F | °C
As of 5:56 AM on Wednesday 22 Oct 2014 (Local Time) from KGON Reporting Station
Overcast Overcast  
Wind Chill: 54°   Ceiling: 1100
Heat Index: 54°   Visibility: 10mi
Dew Point: 51°   Wind: 12mph
Humidity: 90%   Direction: 30°NNE
Pressure: 29.92"   Gusts: NA
Location:  41.47°N, 71.96°W
Report Text: KGON 220956Z AUTO 03010KT 10SM OVC011 12/11 A2992 RMK AO2 SLP130 T01220106
Loading
Personal Weather Stations






























Interactive Weather Map
Tropical Storm Tracking
New forecast layout! Learn more

10-Day Weather Forecast

Advertisements
Track Severe Weather on mobile